Time;durP1;ratioP1;P1;durP2;ratioP2;P2;SDS_P1;SDS_P2;PMS_P1;PMS_P2;Temp;Humidity;BMP_temperature;BMP_pressure;BME280_temperature;BME280_humidity;BME280_pressure;Samples;Min_cycle;Max_cycle;Signal;HPM_P1;HPM_P2
2021/11/10 00:02:25;;;;;;;45.50;23.27;;;;;;;0.49;100.00;101149.09;5032470;28;20090;-76
2021/11/10 00:05:10;;;;;;;47.55;22.27;;;;;;;0.37;100.00;101157.22;5033137;28;20049;-76
2021/11/10 00:07:58;;;;;;;41.25;22.38;;;;;;;0.42;100.00;101162.53;5033050;28;20048;-76
2021/11/10 00:10:42;;;;;;;36.65;20.88;;;;;;;0.38;100.00;101158.09;5033222;28;20053;-76
2021/11/10 00:13:27;;;;;;;38.65;20.42;;;;;;;0.38;100.00;101156.41;5033010;28;20346;-76
2021/11/10 00:16:12;;;;;;;43.55;20.73;;;;;;;0.31;100.00;101163.84;5032369;28;20037;-75
2021/11/10 00:18:56;;;;;;;40.22;20.95;;;;;;;0.34;100.00;101157.09;5018347;28;20042;-75
2021/11/10 00:21:41;;;;;;;45.40;22.83;;;;;;;0.33;100.00;101157.06;5032107;28;20117;-75
2021/11/10 00:24:26;;;;;;;64.55;30.45;;;;;;;0.37;100.00;101158.94;5032058;28;20053;-75
2021/11/10 00:27:10;;;;;;;80.82;37.67;;;;;;;0.32;100.00;101151.00;5032875;28;20045;-75
2021/11/10 00:29:56;;;;;;;73.22;35.85;;;;;;;0.36;100.00;101152.03;5032330;28;20102;-75
2021/11/10 00:32:40;;;;;;;73.05;34.20;;;;;;;0.42;100.00;101154.81;5032074;28;20057;-75
2021/11/10 00:35:24;;;;;;;61.97;29.92;;;;;;;0.46;100.00;101156.69;5032801;28;20053;-74
2021/11/10 00:38:09;;;;;;;77.28;34.47;;;;;;;0.53;100.00;101145.78;5035398;28;20037;-74
2021/11/10 00:40:55;;;;;;;96.10;44.05;;;;;;;0.53;100.00;101140.63;5035337;28;20041;-75
2021/11/10 00:43:39;;;;;;;122.13;53.50;;;;;;;0.60;100.00;101145.19;5021586;28;20041;-74
2021/11/10 00:46:24;;;;;;;128.43;61.05;;;;;;;0.61;100.00;101134.03;5036023;28;20041;-74
2021/11/10 00:49:08;;;;;;;114.03;55.55;;;;;;;0.68;100.00;101124.81;5036134;28;20037;-74
2021/11/10 00:51:53;;;;;;;73.70;40.70;;;;;;;0.79;100.00;101115.78;5035181;28;20046;-75
2021/11/10 00:54:37;;;;;;;62.80;34.10;;;;;;;1.00;100.00;101113.06;5094438;28;20037;-74
2021/11/10 00:57:21;;;;;;;67.00;34.47;;;;;;;1.26;100.00;101110.47;5035079;28;20045;-74
2021/11/10 01:00:08;;;;;;;66.82;35.15;;;;;;;1.45;100.00;101104.22;5021190;28;20110;-74
2021/11/10 01:02:53;;;;;;;68.57;33.67;;;;;;;1.46;100.00;101095.63;5034929;28;20041;-75
2021/11/10 01:05:39;;;;;;;69.95;34.53;;;;;;;1.65;100.00;101095.38;5021090;28;20099;-75
2021/11/10 01:08:25;;;;;;;67.32;35.00;;;;;;;1.70;100.00;101093.84;5034873;28;20062;-75
2021/11/10 01:11:10;;;;;;;69.00;35.83;;;;;;;1.74;100.00;101098.28;5034837;28;20135;-75
2021/11/10 01:13:57;;;;;;;65.75;30.88;;;;;;;1.74;100.00;101094.81;5034845;28;20446;-75
2021/11/10 01:16:42;;;;;;;68.72;33.22;;;;;;;1.75;100.00;101094.84;5034799;28;20423;-75
2021/11/10 01:19:27;;;;;;;65.10;33.22;;;;;;;1.78;100.00;101089.78;5034806;28;20041;-75
2021/11/10 01:22:13;;;;;;;60.75;30.95;;;;;;;1.81;100.00;101091.59;5034912;28;20347;-75
2021/11/10 01:24:58;;;;;;;57.75;30.20;;;;;;;1.76;100.00;101088.00;5021005;28;20049;-75
2021/11/10 01:27:43;;;;;;;58.72;32.88;;;;;;;1.78;100.00;101087.19;5034498;28;20121;-75
2021/11/10 01:30:28;;;;;;;63.75;35.00;;;;;;;1.83;100.00;101083.06;5034570;28;20056;-75
2021/11/10 01:33:14;;;;;;;58.30;31.88;;;;;;;1.79;100.00;101088.97;5034643;28;20037;-75
2021/11/10 01:36:00;;;;;;;65.82;35.35;;;;;;;1.75;100.00;101073.31;5020845;28;20042;-75
2021/11/10 01:38:46;;;;;;;68.03;36.38;;;;;;;1.82;100.00;101081.31;5034533;28;20061;-75
2021/11/10 01:41:37;;;;;;;71.60;35.53;;;;;;;1.79;100.00;101075.19;5034461;28;20067;-75
2021/11/10 01:44:25;;;;;;;64.65;34.60;;;;;;;1.85;100.00;101088.25;5034315;28;20042;-74
2021/11/10 01:47:13;;;;;;;70.68;36.70;;;;;;;1.81;100.00;101083.84;5034245;28;20052;-75
2021/11/10 01:49:59;;;;;;;62.78;34.47;;;;;;;1.66;100.00;101085.94;5034284;28;20045;-75
2021/11/10 01:52:46;;;;;;;56.20;31.75;;;;;;;1.62;100.00;101077.22;5020388;28;20056;-75
2021/11/10 01:55:32;;;;;;;58.28;31.17;;;;;;;1.52;100.00;101073.47;5034176;28;20042;-75
2021/11/10 01:58:16;;;;;;;55.45;30.95;;;;;;;1.48;100.00;101063.00;5034242;28;20114;-75
2021/11/10 02:01:03;;;;;;;56.95;31.15;;;;;;;1.54;100.00;101073.53;5034076;28;20050;-75
2021/11/10 02:03:48;;;;;;;55.13;30.15;;;;;;;1.48;100.00;101063.00;5034131;28;20435;-75
2021/11/10 02:06:38;;;;;;;53.97;30.00;;;;;;;1.42;100.00;101071.44;5033956;28;20067;-75
2021/11/10 02:09:45;;;;;;;55.25;31.48;;;;;;;1.36;100.00;101063.47;5033632;28;20053;-75
2021/11/10 02:12:31;;;;;;;54.90;30.15;;;;;;;1.34;100.00;101057.41;5033888;28;20038;-75
2021/11/10 02:15:18;;;;;;;53.22;29.00;;;;;;;1.30;100.00;101055.53;5033880;28;20045;-75
2021/11/10 02:18:04;;;;;;;56.35;31.08;;;;;;;1.16;100.00;101055.97;5033959;28;20427;-75
2021/11/10 02:20:52;;;;;;;52.25;29.23;;;;;;;1.07;100.00;101049.63;5033679;28;20049;-74
2021/11/10 02:23:37;;;;;;;48.28;27.05;;;;;;;1.01;100.00;101059.75;5034570;28;20046;-75
2021/11/10 02:26:22;;;;;;;56.60;30.75;;;;;;;0.93;100.00;101054.34;5034453;28;20068;-75
2021/11/10 02:29:07;;;;;;;61.20;31.17;;;;;;;0.86;100.00;101044.63;5033724;28;20098;-75
2021/11/10 02:31:54;;;;;;;60.45;32.45;;;;;;;0.87;100.00;101047.25;5033622;28;20439;-75
2021/11/10 02:34:43;;;;;;;57.80;29.02;;;;;;;0.75;100.00;101040.78;5034311;28;20038;-75
2021/11/10 02:37:27;;;;;;;57.92;30.58;;;;;;;0.63;100.00;101037.00;5019685;28;20037;-75
2021/11/10 02:40:11;;;;;;;52.25;29.55;;;;;;;0.59;100.00;101029.09;5033580;28;20037;-75
2021/11/10 02:42:57;;;;;;;48.47;26.98;;;;;;;0.51;100.00;101021.09;5034332;28;20041;-75
2021/11/10 02:45:41;;;;;;;47.92;28.23;;;;;;;0.41;100.00;101021.59;5033355;28;20061;-75
2021/11/10 02:48:26;;;;;;;47.67;26.20;;;;;;;0.34;100.00;101010.19;5033504;28;20454;-75
2021/11/10 02:51:10;;;;;;;50.03;27.58;;;;;;;0.33;100.00;101012.72;5034152;28;20042;-75
2021/11/10 02:53:55;;;;;;;51.65;26.77;;;;;;;0.24;100.00;101015.84;5034128;28;20040;-74
2021/11/10 02:56:40;;;;;;;50.75;27.92;;;;;;;0.20;100.00;101019.13;5033311;28;20041;-74
2021/11/10 02:59:24;;;;;;;57.47;29.27;;;;;;;0.22;100.00;101012.31;5033131;28;20431;-74
2021/11/10 03:02:10;;;;;;;57.03;29.23;;;;;;;0.14;100.00;101014.63;5019467;28;20038;-74
2021/11/10 03:04:56;;;;;;;54.10;28.38;;;;;;;0.13;100.00;101019.72;5091980;28;20041;-74
2021/11/10 03:07:40;;;;;;;55.85;29.95;;;;;;;0.13;100.00;101023.19;5005432;28;20049;-74
2021/11/10 03:10:25;;;;;;;61.75;31.02;;;;;;;0.16;100.00;101017.25;5019013;28;20068;-74
2021/11/10 03:13:13;;;;;;;56.30;30.42;;;;;;;0.14;100.00;101011.19;5033078;28;20124;-74
2021/11/10 03:15:58;;;;;;;63.95;31.02;;;;;;;0.08;100.00;101006.69;5032972;28;20046;-74
2021/11/10 03:18:43;;;;;;;58.78;31.60;;;;;;;-0.01;100.00;101003.75;5019009;28;20073;-74
2021/11/10 03:21:28;;;;;;;56.10;31.67;;;;;;;0.04;100.00;101004.81;5032816;28;20332;-74
2021/11/10 03:24:15;;;;;;;53.40;29.23;;;;;;;0.06;100.00;101010.00;5019181;28;20038;-74
2021/11/10 03:27:00;;;;;;;57.58;30.67;;;;;;;-0.09;100.00;101006.06;5032963;28;20431;-74
2021/11/10 03:29:51;;;;;;;56.78;29.88;;;;;;;-0.14;100.00;100999.84;5018956;28;20069;-74
2021/11/10 03:32:38;;;;;;;66.60;33.25;;;;;;;-0.13;100.00;101004.22;5032788;28;20045;-74
2021/11/10 03:35:23;;;;;;;55.42;29.23;;;;;;;-0.18;100.00;101005.72;5033520;28;20037;-74
2021/11/10 03:38:08;;;;;;;54.42;28.95;;;;;;;-0.18;100.00;100997.13;5032668;28;20038;-74
2021/11/10 03:40:52;;;;;;;50.13;27.98;;;;;;;-0.17;100.00;100997.16;5019004;28;20112;-74
2021/11/10 03:43:42;;;;;;;57.95;28.10;;;;;;;-0.25;100.00;100996.88;5019287;28;20041;-74
2021/11/10 03:46:27;;;;;;;60.53;30.30;;;;;;;-0.22;100.00;100996.13;5032498;28;20051;-74
2021/11/10 03:49:15;;;;;;;55.83;28.50;;;;;;;-0.33;100.00;100989.69;5032589;28;20049;-74
2021/11/10 03:52:01;;;;;;;51.72;26.80;;;;;;;-0.36;100.00;100987.88;5032499;28;20076;-74
2021/11/10 03:54:47;;;;;;;56.92;26.77;;;;;;;-0.39;100.00;100974.91;5032381;28;20382;-74
2021/11/10 03:57:32;;;;;;;50.80;28.20;;;;;;;-0.38;100.00;100976.66;5033023;28;20046;-74
2021/11/10 04:00:17;;;;;;;53.70;27.70;;;;;;;-0.38;100.00;100968.06;5032370;28;20045;-74
2021/11/10 04:03:01;;;;;;;54.20;26.73;;;;;;;-0.41;100.00;100973.09;5032922;28;20046;-74
2021/11/10 04:05:51;;;;;;;49.55;26.23;;;;;;;-0.44;100.00;100972.97;5032260;28;20363;-74
2021/11/10 04:08:38;;;;;;;53.08;27.75;;;;;;;-0.52;100.00;100964.94;5032108;28;20077;-74
2021/11/10 04:11:23;;;;;;;61.42;28.00;;;;;;;-0.49;100.00;100958.25;5031813;28;20046;-74
2021/11/10 04:14:08;;;;;;;56.38;27.77;;;;;;;-0.46;100.00;100962.59;5032873;28;20325;-74
2021/11/10 04:16:56;;;;;;;59.42;29.00;;;;;;;-0.28;100.00;100957.28;5032173;28;20037;-74
2021/11/10 04:19:40;;;;;;;59.55;26.92;;;;;;;-0.23;100.00;100966.03;5031977;28;20050;-74
2021/11/10 04:22:26;;;;;;;52.53;27.45;;;;;;;-0.15;100.00;100963.75;5032099;28;20038;-74
2021/11/10 04:25:10;;;;;;;51.22;26.83;;;;;;;-0.02;100.00;100960.81;5032868;28;20068;-74
2021/11/10 04:27:55;;;;;;;55.38;28.90;;;;;;;0.07;100.00;100955.97;5018133;28;20336;-74
2021/11/10 04:30:46;;;;;;;45.25;25.63;;;;;;;0.23;100.00;100953.13;5031967;28;20049;-74
2021/11/10 04:33:31;;;;;;;47.25;26.67;;;;;;;0.25;100.00;100948.00;5032597;28;20058;-74
2021/11/10 04:36:16;;;;;;;45.28;23.75;;;;;;;0.32;100.00;100943.94;5018056;28;20125;-74
2021/11/10 04:39:04;;;;;;;39.25;21.77;;;;;;;0.32;100.00;100941.34;5018325;28;20038;-74
2021/11/10 04:41:50;;;;;;;37.95;21.50;;;;;;;0.47;100.00;100937.59;5018232;28;20359;-74
2021/11/10 04:44:36;;;;;;;36.13;19.67;;;;;;;0.50;100.00;100944.56;5031891;28;20046;-74
2021/11/10 04:47:21;;;;;;;42.22;23.45;;;;;;;0.53;100.00;100943.81;5031870;28;20053;-74
2021/11/10 04:50:08;;;;;;;40.67;21.52;;;;;;;0.42;100.00;100951.16;5031797;28;20419;-74
2021/11/10 04:52:52;;;;;;;42.17;20.80;;;;;;;0.39;100.00;100946.78;5031723;28;20102;-74
2021/11/10 04:55:37;;;;;;;44.30;21.15;;;;;;;0.42;100.00;100946.91;5004089;28;20069;-74
2021/11/10 04:58:21;;;;;;;42.17;21.00;;;;;;;0.40;100.00;100943.38;5031738;28;20385;-74
2021/11/10 05:01:15;;;;;;;40.75;23.05;;;;;;;0.41;100.00;100949.41;5031618;28;20033;-74
2021/11/10 05:03:59;;;;;;;47.33;22.52;;;;;;;0.33;100.00;100945.72;5031901;28;20392;-74
2021/11/10 05:06:44;;;;;;;45.55;23.52;;;;;;;0.34;100.00;100940.59;5031532;28;20102;-74
2021/11/10 05:09:29;;;;;;;48.45;26.00;;;;;;;0.34;100.00;100940.59;5031268;28;20076;-74
2021/11/10 05:12:14;;;;;;;41.67;22.55;;;;;;;0.32;100.00;100925.91;5032286;28;20041;-74
2021/11/10 05:14:59;;;;;;;61.13;35.00;;;;;;;0.30;100.00;100927.56;5031423;28;20037;-74
2021/11/10 05:17:44;;;;;;;58.05;28.70;;;;;;;0.42;100.00;100926.28;5031415;28;20094;-74
2021/11/10 05:20:31;;;;;;;48.67;27.60;;;;;;;0.47;100.00;100924.72;5031233;28;20037;-74
2021/11/10 05:23:18;;;;;;;49.17;24.05;;;;;;;0.39;100.00;100922.69;5018801;28;20041;-74
2021/11/10 05:26:03;;;;;;;54.47;25.00;;;;;;;0.28;100.00;100924.03;5035364;28;20049;-74
2021/11/10 05:28:47;;;;;;;48.80;25.00;;;;;;;0.23;100.00;100923.91;5035365;28;20045;-74
2021/11/10 05:31:32;;;;;;;53.90;27.92;;;;;;;0.21;100.00;100928.13;5035471;28;20049;-74
2021/11/10 05:34:16;;;;;;;51.78;27.63;;;;;;;0.32;100.00;100923.31;5035465;28;20427;-74
2021/11/10 05:37:01;;;;;;;45.15;23.92;;;;;;;0.54;100.00;100930.94;5034738;28;20053;-74
2021/11/10 05:39:45;;;;;;;40.20;22.02;;;;;;;0.70;100.00;100919.44;5035087;28;20049;-74
2021/11/10 05:42:29;;;;;;;31.35;19.25;;;;;;;1.18;100.00;100921.81;5034430;28;20045;-74
2021/11/10 05:45:14;;;;;;;31.70;18.42;;;;;;;1.14;100.00;100912.25;5035171;28;20053;-74
2021/11/10 05:47:58;;;;;;;30.88;19.58;;;;;;;1.38;100.00;100906.94;5034943;28;20124;-74
2021/11/10 05:50:44;;;;;;;28.45;18.38;;;;;;;1.39;100.00;100913.84;5034988;28;20049;-74
2021/11/10 05:53:30;;;;;;;29.77;17.55;;;;;;;1.36;100.00;100909.44;5034949;28;20045;-74
2021/11/10 05:56:33;;;;;;;40.45;19.98;;;;;;;1.59;100.00;100911.81;5034852;28;20037;-74
2021/11/10 05:59:18;;;;;;;34.60;19.13;;;;;;;1.67;100.00;100918.09;5020432;28;20049;-74
2021/11/10 06:02:03;;;;;;;36.33;18.75;;;;;;;1.72;100.00;100906.19;5034332;28;20045;-74
2021/11/10 06:04:47;;;;;;;33.50;17.92;;;;;;;2.19;100.00;100909.19;5035286;28;20435;-74
2021/11/10 06:07:32;;;;;;;32.13;18.00;;;;;;;1.97;100.00;100914.63;5034310;28;20120;-74
2021/11/10 06:10:18;;;;;;;36.65;19.58;;;;;;;2.05;100.00;100913.13;5034133;28;20073;-74
2021/11/10 06:13:03;;;;;;;33.90;18.55;;;;;;;2.21;100.00;100914.38;5034177;28;20045;-74
2021/11/10 06:15:47;;;;;;;31.90;18.75;;;;;;;2.36;100.00;100913.94;5034813;28;20037;-74
2021/11/10 06:18:33;;;;;;;26.50;17.33;;;;;;;2.53;100.00;100912.63;5020851;28;20042;-76
2021/11/10 06:21:18;;;;;;;31.98;16.80;;;;;;;2.52;100.00;100903.13;5034596;28;20468;-74
2021/11/10 06:24:03;;;;;;;36.47;18.70;;;;;;;2.68;100.00;100913.03;5034460;28;20042;-74
2021/11/10 06:26:49;;;;;;;54.47;27.70;;;;;;;2.70;100.00;100910.50;5020110;28;20107;-74
2021/11/10 06:29:33;;;;;;;50.67;26.05;;;;;;;2.82;100.00;100905.59;5034975;28;20041;-74
2021/11/10 06:32:18;;;;;;;39.38;23.05;;;;;;;3.03;100.00;100907.81;5037405;28;20042;-74
2021/11/10 06:35:05;;;;;;;38.75;20.40;;;;;;;3.12;100.00;100909.72;5033698;28;20366;-75
2021/11/10 06:37:49;;;;;;;33.72;19.63;;;;;;;3.07;100.00;100904.44;5019953;28;20053;-74
2021/11/10 06:40:34;;;;;;;37.88;18.95;;;;;;;3.14;100.00;100903.75;5033693;28;20046;-74
2021/11/10 06:43:18;;;;;;;32.40;17.27;;;;;;;3.39;100.00;100901.72;5033833;28;20033;-75
2021/11/10 06:46:03;;;;;;;35.45;20.55;;;;;;;3.50;100.00;100898.47;5020276;28;20037;-74
2021/11/10 06:48:47;;;;;;;33.72;18.55;;;;;;;3.51;100.00;100899.38;5034568;28;20045;-75
2021/11/10 06:51:32;;;;;;;36.65;20.33;;;;;;;3.59;100.00;100905.56;5033837;28;20141;-74
2021/11/10 06:54:17;;;;;;;34.75;19.83;;;;;;;3.60;100.00;100896.97;5033796;28;20041;-75
2021/11/10 06:57:02;;;;;;;40.75;21.95;;;;;;;3.72;100.00;100902.41;5034173;28;20049;-74
2021/11/10 06:59:46;;;;;;;40.60;22.15;;;;;;;3.82;100.00;100894.81;5034570;28;20045;-74
2021/11/10 07:02:31;;;;;;;37.97;20.42;;;;;;;3.92;100.00;100899.31;5033635;28;20057;-74
2021/11/10 07:05:15;;;;;;;45.47;25.17;;;;;;;3.98;100.00;100904.63;5034568;28;20037;-74
2021/11/10 07:08:00;;;;;;;37.08;21.15;;;;;;;4.03;100.00;100899.50;5033280;28;20359;-75
2021/11/10 07:10:45;;;;;;;37.10;19.15;;;;;;;4.13;100.00;100891.09;4996677;28;20057;-75
2021/11/10 07:13:29;;;;;;;37.22;18.58;;;;;;;4.22;100.00;100899.91;4994155;28;20046;-75
2021/11/10 07:16:14;;;;;;;31.58;18.17;;;;;;;4.33;100.00;100894.03;4994760;28;20046;-75
2021/11/10 07:19:00;;;;;;;39.30;20.10;;;;;;;4.51;100.00;100896.94;4993952;28;20053;-75
2021/11/10 07:21:45;;;;;;;39.83;19.35;;;;;;;4.73;100.00;100899.88;4994187;28;20047;-75
2021/11/10 07:24:29;;;;;;;32.05;18.10;;;;;;;4.95;98.91;100894.19;4994237;28;20328;-75
2021/11/10 07:27:14;;;;;;;28.38;15.52;;;;;;;5.06;96.94;100883.94;4993530;28;20047;-74
2021/11/10 07:29:59;;;;;;;35.60;18.52;;;;;;;5.31;97.04;100887.75;4994763;28;20050;-75
2021/11/10 07:32:43;;;;;;;30.00;17.83;;;;;;;5.52;95.27;100876.75;4993699;28;20092;-75
2021/11/10 07:35:27;;;;;;;25.65;15.18;;;;;;;5.59;93.46;100882.06;4979536;28;20039;-74
2021/11/10 07:38:13;;;;;;;27.95;15.82;;;;;;;5.93;92.56;100872.09;4977972;28;20463;-74
2021/11/10 07:40:59;;;;;;;30.83;14.77;;;;;;;5.99;91.97;100873.88;4991478;28;20042;-74
2021/11/10 07:43:44;;;;;;;28.25;14.40;;;;;;;6.24;92.25;100867.16;4993851;28;20047;-72
2021/11/10 07:46:33;;;;;;;21.88;12.95;;;;;;;6.30;89.53;100873.34;4990818;28;20348;-74
2021/11/10 07:49:19;;;;;;;21.77;13.82;;;;;;;6.61;88.87;100868.38;4993513;28;20049;-74
2021/11/10 07:52:04;;;;;;;20.38;12.70;;;;;;;6.78;88.36;100866.75;4993711;28;20137;-73
2021/11/10 07:54:49;;;;;;;21.73;12.95;;;;;;;6.67;86.67;100867.56;4992120;28;20042;-74
2021/11/10 07:57:34;;;;;;;26.10;13.75;;;;;;;7.05;86.73;100869.53;4991261;28;20034;-72
2021/11/10 08:00:20;;;;;;;18.92;12.98;;;;;;;7.15;85.18;100876.53;4992074;28;20042;-74
2021/11/10 08:03:05;;;;;;;20.83;12.70;;;;;;;7.18;83.96;100867.03;4991066;28;20046;-74
2021/11/10 08:05:50;;;;;;;20.13;12.40;;;;;;;7.39;84.08;100870.63;4991873;28;20057;-74
2021/11/10 08:08:35;;;;;;;26.52;13.93;;;;;;;7.62;83.11;100868.09;4981038;28;20359;-75
2021/11/10 08:11:19;;;;;;;19.02;12.68;;;;;;;7.75;82.40;100871.63;5031054;28;20045;-74
2021/11/10 08:14:05;;;;;;;23.23;12.93;;;;;;;7.92;80.70;100868.19;5017345;28;20045;-74
2021/11/10 08:16:49;;;;;;;24.33;14.77;;;;;;;8.16;80.40;100871.75;5032070;28;20433;-74
2021/11/10 08:19:34;;;;;;;21.48;12.73;;;;;;;8.41;79.09;100859.59;5032468;28;20041;-74
2021/11/10 08:22:18;;;;;;;27.67;15.40;;;;;;;8.48;79.56;100855.25;5032916;28;20041;-74
2021/11/10 08:25:05;;;;;;;19.63;10.98;;;;;;;8.68;77.66;100861.34;5031990;28;20041;-74
2021/11/10 08:27:51;;;;;;;17.85;11.80;;;;;;;8.54;78.26;100856.13;5032047;28;20056;-74
2021/11/10 08:30:36;;;;;;;19.95;12.57;;;;;;;8.62;78.34;100863.97;5031978;28;20045;-74
2021/11/10 08:33:21;;;;;;;17.05;10.63;;;;;;;8.83;77.59;100865.69;5031912;28;20053;-74
2021/11/10 08:36:05;;;;;;;13.15;8.25;;;;;;;9.31;76.04;100859.47;5032825;28;20045;-75
2021/11/10 08:38:49;;;;;;;13.63;8.45;;;;;;;8.81;76.47;100864.81;5031987;28;20033;-75
2021/11/10 08:41:34;;;;;;;10.40;7.88;;;;;;;9.34;75.59;100863.84;5032434;28;20042;-75
2021/11/10 08:44:18;;;;;;;11.70;8.35;;;;;;;9.47;75.25;100856.81;5031720;28;20042;-75
2021/11/10 08:47:04;;;;;;;11.73;7.53;;;;;;;9.40;74.60;100852.50;5032914;28;20037;-75
2021/11/10 08:49:48;;;;;;;9.25;6.47;;;;;;;9.56;73.07;100852.41;5032508;28;20057;-75
2021/11/10 08:52:34;;;;;;;9.85;7.03;;;;;;;9.56;73.26;100847.19;5017707;28;20118;-75
2021/11/10 08:55:19;;;;;;;11.10;7.32;;;;;;;9.99;72.25;100851.31;5032146;28;20055;-75
2021/11/10 08:58:05;;;;;;;12.65;7.15;;;;;;;10.03;71.96;100848.66;5032993;28;20045;-75
2021/11/10 09:00:52;;;;;;;10.38;6.80;;;;;;;10.24;71.84;100838.94;5035893;28;20427;-75
2021/11/10 09:03:37;;;;;;;7.72;5.45;;;;;;;10.39;70.17;100838.84;5035188;28;20045;-75
2021/11/10 09:06:21;;;;;;;9.90;6.30;;;;;;;10.12;70.51;100842.50;5035738;28;20069;-75
2021/11/10 09:09:05;;;;;;;9.68;6.00;;;;;;;10.20;69.54;100839.81;5035710;28;20455;-75
2021/11/10 09:11:50;;;;;;;8.27;5.47;;;;;;;10.45;70.29;100837.94;5035549;28;20340;-75
2021/11/10 09:14:35;;;;;;;9.80;5.82;;;;;;;9.74;70.06;100838.38;5035277;28;20109;-75
2021/11/10 09:17:20;;;;;;;9.93;6.47;;;;;;;9.95;69.80;100833.91;5035696;28;20415;-75
2021/11/10 09:20:09;;;;;;;10.65;6.72;;;;;;;9.89;69.89;100842.66;5034648;28;20049;-75
2021/11/10 09:22:54;;;;;;;10.10;6.57;;;;;;;9.49;70.21;100848.09;5035647;28;20446;-75
2021/11/10 09:25:39;;;;;;;14.43;9.00;;;;;;;10.21;69.79;100842.44;5034579;28;20072;-75
2021/11/10 09:28:26;;;;;;;12.82;7.53;;;;;;;10.12;69.81;100826.81;5035160;28;20358;-75
2021/11/10 09:31:11;;;;;;;20.50;8.68;;;;;;;10.62;68.37;100825.53;5034683;28;20431;-75
2021/11/10 09:34:01;;;;;;;12.80;8.55;;;;;;;10.43;69.53;100832.72;5035721;28;20117;-75
2021/11/10 09:36:47;;;;;;;11.52;6.60;;;;;;;10.38;69.25;100837.09;5034673;28;20041;-75
2021/11/10 09:39:31;;;;;;;9.70;6.80;;;;;;;10.23;69.10;100832.81;5035008;28;20041;-75
2021/11/10 09:42:16;;;;;;;11.02;7.18;;;;;;;10.31;69.18;100840.66;5034600;28;20050;-74
2021/11/10 09:45:01;;;;;;;13.13;6.50;;;;;;;10.31;68.40;100834.56;5035039;28;20432;-75
2021/11/10 09:47:46;;;;;;;10.55;6.68;;;;;;;10.67;68.24;100834.25;5034218;28;20053;-74
2021/11/10 09:50:31;;;;;;;8.52;6.18;;;;;;;10.34;68.80;100834.53;5035215;28;20115;-75
2021/11/10 09:53:16;;;;;;;12.27;5.78;;;;;;;10.49;67.37;100834.41;5035002;28;20037;-75
2021/11/10 09:56:02;;;;;;;12.18;7.55;;;;;;;10.64;68.26;100828.16;5034619;28;20338;-75
2021/11/10 09:58:48;;;;;;;9.90;6.13;;;;;;;10.63;68.40;100822.06;5035375;28;20404;-74
2021/11/10 10:01:34;;;;;;;13.18;6.75;;;;;;;10.57;67.88;100823.88;5034352;28;20041;-75
2021/11/10 10:04:21;;;;;;;10.80;5.68;;;;;;;10.74;67.38;100824.56;5034077;28;20052;-76
2021/11/10 10:07:07;;;;;;;11.02;6.32;;;;;;;11.00;66.67;100819.94;5020242;28;20053;-76
2021/11/10 10:09:51;;;;;;;8.10;5.47;;;;;;;10.85;66.97;100827.06;5034169;28;20459;-76
2021/11/10 10:12:36;;;;;;;7.20;5.40;;;;;;;10.60;66.64;100824.72;5034991;28;20052;-76
2021/11/10 10:15:21;;;;;;;7.47;5.43;;;;;;;11.11;66.73;100818.94;5034505;28;20041;-76
2021/11/10 10:18:24;;;;;;;10.38;5.95;;;;;;;11.11;66.95;100809.31;5033823;28;20435;-76
2021/11/10 10:21:11;;;;;;;9.48;5.88;;;;;;;10.97;65.72;100822.56;5034443;28;20041;-76
2021/11/10 10:23:55;;;;;;;8.57;5.95;;;;;;;10.91;66.07;100817.41;5034445;28;20046;-75
2021/11/10 10:26:40;;;;;;;8.07;5.03;;;;;;;10.67;66.57;100818.53;5034879;28;20041;-76
2021/11/10 10:29:25;;;;;;;8.05;6.10;;;;;;;11.02;66.83;100812.06;5033643;28;20065;-76
2021/11/10 10:32:10;;;;;;;10.15;6.90;;;;;;;11.12;66.83;100805.81;5034249;28;20045;-75
2021/11/10 10:34:54;;;;;;;12.65;8.10;;;;;;;11.27;66.10;100807.38;5034490;28;20470;-76
2021/11/10 10:37:49;;;;;;;10.30;6.93;;;;;;;11.10;66.14;100801.47;5033479;28;20045;-76
2021/11/10 10:40:37;;;;;;;9.07;5.75;;;;;;;11.11;65.30;100780.47;5033378;28;20072;-77
2021/11/10 10:43:23;;;;;;;8.38;6.32;;;;;;;11.30;64.88;100790.75;5033880;28;20041;-76
2021/11/10 10:46:09;;;;;;;10.55;5.82;;;;;;;11.14;65.73;100800.53;5019639;28;20042;-76
2021/11/10 10:49:14;;;;;;;6.28;5.03;;;;;;;11.32;65.06;100792.47;5034478;28;20045;-76
2021/11/10 10:52:14;;;;;;;7.38;5.20;;;;;;;11.49;65.67;100792.25;5033417;28;20050;-76
2021/11/10 10:54:59;;;;;;;9.18;5.40;;;;;;;11.36;65.75;100782.81;5033870;28;20053;-76
2021/11/10 10:57:44;;;;;;;13.43;7.28;;;;;;;11.70;64.77;100777.97;5034220;28;20050;-76
2021/11/10 11:00:33;;;;;;;9.27;5.97;;;;;;;11.85;64.10;100772.53;5033441;28;20038;-76
2021/11/10 11:03:17;;;;;;;9.05;5.25;;;;;;;11.79;64.10;100776.97;5034197;28;20041;-76
2021/11/10 11:06:02;;;;;;;8.60;5.05;;;;;;;11.62;64.62;100764.94;5032930;28;20059;-76
2021/11/10 11:08:47;;;;;;;8.18;4.45;;;;;;;11.50;64.06;100769.50;5033882;28;20049;-76
2021/11/10 11:11:43;;;;;;;8.23;4.63;;;;;;;11.68;64.59;100762.25;5032968;28;20416;-76
2021/11/10 11:14:39;;;;;;;6.05;4.43;;;;;;;11.92;64.31;100757.53;5019010;28;20037;-76
2021/11/10 11:17:45;;;;;;;9.05;4.75;;;;;;;11.56;64.44;100751.06;5033549;28;20052;-76
2021/11/10 11:20:35;;;;;;;11.77;6.05;;;;;;;11.64;65.00;100750.06;5032020;28;20041;-76
2021/11/10 11:23:19;;;;;;;10.00;5.10;;;;;;;11.86;64.00;100740.16;5032841;28;20038;-76
2021/11/10 11:26:06;;;;;;;34.58;23.45;;;;;;;11.84;64.01;100741.91;5033658;28;20059;-76
2021/11/10 11:28:50;;;;;;;14.15;8.38;;;;;;;11.97;63.59;100734.72;5033157;28;20042;-76
2021/11/10 11:31:36;;;;;;;6.30;4.70;;;;;;;12.02;62.88;100727.63;5034190;28;20053;-76
2021/11/10 11:34:21;;;;;;;7.47;4.97;;;;;;;12.08;63.41;100734.53;5034393;28;20053;-76
2021/11/10 11:37:06;;;;;;;14.43;9.50;;;;;;;11.88;63.61;100737.50;5033248;28;20075;-76
2021/11/10 11:39:52;;;;;;;15.02;10.20;;;;;;;11.59;63.54;100725.63;5033187;28;20400;-76
2021/11/10 11:42:37;;;;;;;15.73;11.48;;;;;;;11.97;64.23;100724.22;5032462;28;20445;-76
2021/11/10 11:45:23;;;;;;;11.55;8.52;;;;;;;11.79;62.74;100719.22;5032996;28;20450;-75
2021/11/10 11:48:11;;;;;;;27.55;17.23;;;;;;;11.76;63.37;100716.63;5033614;28;20347;-76
2021/11/10 11:51:03;;;;;;;39.58;26.27;;;;;;;11.98;63.58;100712.81;5018347;28;20045;-76
2021/11/10 11:53:49;;;;;;;45.22;24.90;;;;;;;11.93;63.12;100704.16;5033307;28;20052;-75
2021/11/10 11:56:34;;;;;;;88.50;44.88;;;;;;;12.27;63.31;100707.06;5032981;28;20037;-75
2021/11/10 11:59:20;;;;;;;134.07;66.10;;;;;;;11.93;62.22;100705.03;5032937;28;20129;-75
2021/11/10 12:02:24;;;;;;;136.65;66.10;;;;;;;11.54;nan;100697.75;5033332;28;20041;-76
2021/11/10 12:05:12;;;;;;;;;;;;;;;11.69;62.40;100694.88;5033543;28;20042;-75
2021/11/10 12:07:58;;;;;;;15.68;8.95;;;;;;;11.75;62.22;100694.78;5033331;28;19995;-75
2021/11/10 12:10:42;;;;;;;38.90;26.05;;;;;;;11.89;61.27;100681.47;5032659;28;20088;-75
2021/11/10 12:13:27;;;;;;;19.67;11.52;;;;;;;11.82;61.38;100688.53;5033015;28;20037;-75
2021/11/10 12:16:20;;;;;;;54.53;30.02;;;;;;;11.76;62.49;100683.38;5032750;28;20081;-76
2021/11/10 12:19:05;;;;;;;33.17;20.90;;;;;;;11.72;62.04;100676.47;5031982;28;20045;-76
2021/11/10 12:21:51;;;;;;;28.52;19.77;;;;;;;11.58;62.45;100689.81;5033109;28;20416;-75
2021/11/10 12:24:44;;;;;;;25.85;18.10;;;;;;;11.68;62.42;100685.28;5033099;28;20042;-75
2021/11/10 12:27:32;;;;;;;26.50;11.95;;;;;;;11.49;62.47;100684.69;5032704;28;20045;-75
2021/11/10 12:30:22;;;;;;;21.35;11.15;;;;;;;11.88;62.28;100671.88;5032836;28;20041;-75
2021/11/10 12:33:08;;;;;;;11.27;7.30;;;;;;;11.89;61.14;100671.84;5034800;28;20046;-75
2021/11/10 12:35:53;;;;;;;13.90;8.88;;;;;;;11.99;60.09;100672.56;5036292;28;20041;-75
2021/11/10 12:38:38;;;;;;;48.35;27.45;;;;;;;11.72;60.94;100668.59;5036272;28;20434;-76